Airfield :
LOGIN :

Register | Disclaimer

   EN    FR    IT 

 










Legend :    VFR   Marginal VFR   IFR   Intensive IFR   Very Intensive IFR
Visi :
Ceiling :
>= 8 km
>= 3000ft
5 to 8 km
1000 to 3000 ft
1500m to 5 km
500 to 1000 ft
800 to 1500m
200 to 500 ft
< 800m
< 200 ft
Symbols :   Thunderstorms  Fog  Heavy snow  Heavy precipitations  Wind > 20 kt
SIGMETs :     Misc.  Thunderstorms  Icing  Turbulence  Mountain Waves  Volcanic Ashes







- Airport Elevation : 306 ft
- IATA code : EMA
- Download approach charts


EGNX - Nottingham East Midlands

CURRENT METAR :
  • 232050Z 22014KT 9999 BKN020 11/07 Q1012

EXPIRED METARs :
  • 232020Z 23017KT 9999 BKN020 11/07 Q1012
  • 231950Z 22016KT 9999 BKN026 11/07 Q1012
  • 231920Z 23018G28KT 9999 BKN026 11/07 Q1012
  • 231850Z 23015KT 9999 BKN028 11/07 Q1012
  • 231820Z 23017KT 9999 BKN027 12/07 Q1012

TAF TAF EGNX
Valid from the 23 at 18:00 until the 24 at 18:00 UTC


231706Z 2318/2418 25012KT 9999 FEW030
TEMPO 2319/2403 7000 -RA BKN012
PROB30
TEMPO 2320/2401 4000 RADZ BR BKN006
TEMPO 2406/2418 4000 RADZ BKN006
ATIS : +44 1332 852 852 (ext 3201)
No reported NOTAMs for that airfield.



MET'MAP, your aeronautical weather chart ! - Copyright ORBIFLY December 2007 - Disclaimer

ORBIFLY MET'MAP TEAM :

Programming & Development : Alexandra Zaïnal
Concept & Development : Baudouin d'Aumeries
Co-Development & Prog : Marc-Olivier Méhu
Technical & hardware support : Manuel Goepfert

Contact : metmap@orbifly.com




SOURCES & CREDITS :

   NOAA